Time;durP1;ratioP1;P1;durP2;ratioP2;P2;SDS_P1;SDS_P2;PMS_P1;PMS_P2;Temp;Humidity;BMP_temperature;BMP_pressure;BME280_temperature;BME280_humidity;BME280_pressure;Samples;Min_cycle;Max_cycle;Signal;HPM_P1;HPM_P2
2021/11/25 00:00:21;;;;;;;33.70;16.80;;;0.80;99.90;;;;;;5092293;28;20063;-71
2021/11/25 00:02:47;;;;;;;29.63;16.20;;;0.90;99.90;;;;;;5094140;28;20032;-71
2021/11/25 00:05:13;;;;;;;31.70;16.05;;;0.90;99.90;;;;;;5092916;28;20032;-71
2021/11/25 00:07:40;;;;;;;31.77;16.48;;;0.90;99.90;;;;;;5093525;28;20032;-71
2021/11/25 00:10:07;;;;;;;30.85;16.45;;;0.90;99.90;;;;;;5093915;28;20040;-71
2021/11/25 00:12:33;;;;;;;31.98;15.13;;;0.90;99.90;;;;;;5093402;28;20111;-71
2021/11/25 00:14:58;;;;;;;28.08;14.80;;;0.90;99.90;;;;;;5094214;28;20483;-71
2021/11/25 00:17:24;;;;;;;27.92;14.60;;;0.90;99.90;;;;;;5093195;28;20036;-71
2021/11/25 00:19:50;;;;;;;29.33;14.77;;;0.90;99.90;;;;;;5093816;28;20107;-71
2021/11/25 00:22:16;;;;;;;30.48;15.73;;;0.90;99.90;;;;;;5093319;28;20031;-71
2021/11/25 00:24:41;;;;;;;31.27;16.20;;;0.90;99.90;;;;;;5092242;28;20036;-71
2021/11/25 00:27:07;;;;;;;29.25;15.50;;;0.90;99.90;;;;;;5093717;28;20051;-71
2021/11/25 00:29:33;;;;;;;27.98;15.00;;;0.90;99.90;;;;;;5092871;28;20028;-71
2021/11/25 00:31:59;;;;;;;28.55;15.65;;;0.90;99.90;;;;;;5093767;28;20089;-71
2021/11/25 00:34:24;;;;;;;31.92;16.08;;;0.90;99.90;;;;;;5092488;28;20481;-71
2021/11/25 00:36:50;;;;;;;29.75;15.82;;;0.90;99.90;;;;;;5091968;28;20487;-71
2021/11/25 00:39:16;;;;;;;29.33;15.77;;;0.90;99.90;;;;;;5092723;28;20036;-71
2021/11/25 00:41:45;;;;;;;28.48;15.25;;;0.90;99.90;;;;;;5093427;28;20070;-71
2021/11/25 00:44:11;;;;;;;30.83;16.43;;;0.90;99.90;;;;;;5093469;28;20078;-71
2021/11/25 00:46:36;;;;;;;29.85;15.38;;;0.90;99.90;;;;;;5092798;28;20247;-71
2021/11/25 00:49:03;;;;;;;29.05;15.68;;;0.90;99.90;;;;;;5091327;28;20052;-71
2021/11/25 00:51:29;;;;;;;28.35;15.68;;;0.90;99.90;;;;;;5091834;28;20081;-71
2021/11/25 00:53:54;;;;;;;28.70;15.90;;;0.90;99.90;;;;;;5093511;28;20107;-71
2021/11/25 00:56:20;;;;;;;31.48;15.98;;;0.90;99.90;;;;;;5092134;28;20042;-71
2021/11/25 00:58:46;;;;;;;30.92;16.75;;;0.90;99.90;;;;;;5093032;28;20032;-71
2021/11/25 01:01:11;;;;;;;31.40;16.35;;;0.90;99.90;;;;;;5093962;28;20537;-71
2021/11/25 01:03:37;;;;;;;28.58;15.77;;;0.90;99.90;;;;;;5092876;28;20051;-71
2021/11/25 01:06:03;;;;;;;32.42;16.55;;;0.90;99.90;;;;;;5093426;28;20423;-71
2021/11/25 01:08:28;;;;;;;29.55;16.30;;;0.90;99.90;;;;;;5090910;28;20408;-71
2021/11/25 01:10:54;;;;;;;26.08;14.77;;;0.90;99.90;;;;;;5093100;28;20089;-71
2021/11/25 01:13:20;;;;;;;30.95;16.13;;;1.00;99.90;;;;;;5092052;28;20028;-71
2021/11/25 01:15:46;;;;;;;26.83;14.90;;;1.00;99.90;;;;;;5093100;28;20077;-71
2021/11/25 01:18:14;;;;;;;27.05;15.18;;;1.00;99.90;;;;;;5093021;28;20107;-71
2021/11/25 01:20:41;;;;;;;29.30;15.27;;;1.00;99.90;;;;;;5090772;28;20115;-71
2021/11/25 01:23:13;;;;;;;31.15;15.88;;;1.00;99.90;;;;;;5091527;28;20028;-71
2021/11/25 01:25:40;;;;;;;32.92;16.33;;;1.00;99.90;;;;;;5091869;28;20024;-71
2021/11/25 01:28:12;;;;;;;30.45;16.42;;;1.00;99.90;;;;;;5092737;28;20032;-71
2021/11/25 01:30:41;;;;;;;30.83;16.02;;;1.00;99.90;;;;;;5091908;28;20141;-71
2021/11/25 01:33:07;;;;;;;30.23;16.33;;;1.00;99.90;;;;;;5092135;28;20032;-71
2021/11/25 01:35:33;;;;;;;32.35;16.05;;;1.00;99.90;;;;;;5091396;28;20039;-71
2021/11/25 01:37:58;;;;;;;30.63;16.17;;;1.00;99.90;;;;;;5092504;28;20028;-71
2021/11/25 01:40:24;;;;;;;27.45;15.23;;;1.00;99.90;;;;;;5091873;28;20036;-71
2021/11/25 01:42:50;;;;;;;28.80;15.25;;;1.00;99.90;;;;;;5092818;28;20027;-71
2021/11/25 01:45:25;;;;;;;34.15;16.13;;;1.00;99.90;;;;;;5090834;28;20028;-71
2021/11/25 01:47:51;;;;;;;35.15;18.38;;;1.00;99.90;;;;;;5078223;28;20048;-71
2021/11/25 01:50:24;;;;;;;30.83;16.90;;;1.00;99.90;;;;;;5092756;28;20024;-71
2021/11/25 01:52:50;;;;;;;30.45;16.17;;;1.00;99.90;;;;;;5092958;28;20028;-71
2021/11/25 01:55:21;;;;;;;32.10;16.67;;;1.00;99.90;;;;;;5091862;28;20043;-71
2021/11/25 01:57:49;;;;;;;30.58;16.77;;;1.00;99.90;;;;;;5091968;28;20035;-71
2021/11/25 02:00:30;;;;;;;30.13;16.35;;;1.00;99.90;;;;;;5092347;28;20115;-71
2021/11/25 02:02:56;;;;;;;29.25;16.02;;;1.00;99.90;;;;;;5091070;28;20035;-71
2021/11/25 02:05:22;;;;;;;30.40;16.33;;;1.00;99.90;;;;;;5091162;28;20036;-71
2021/11/25 02:07:48;;;;;;;34.17;17.63;;;1.00;99.90;;;;;;5091930;28;20044;-71
2021/11/25 02:10:15;;;;;;;37.78;19.08;;;1.00;99.90;;;;;;5090938;28;20488;-71
2021/11/25 02:12:41;;;;;;;35.65;18.50;;;1.10;99.90;;;;;;5091005;28;20039;-71
2021/11/25 02:15:08;;;;;;;31.95;17.45;;;1.10;99.90;;;;;;5091599;28;20039;-71
2021/11/25 02:17:35;;;;;;;35.15;17.63;;;1.10;99.90;;;;;;5091082;28;20032;-71
2021/11/25 02:20:01;;;;;;;36.25;18.08;;;1.10;99.90;;;;;;5091543;28;20032;-71
2021/11/25 02:22:27;;;;;;;33.85;17.45;;;1.10;99.90;;;;;;5091061;28;20020;-71
2021/11/25 02:24:53;;;;;;;38.70;17.95;;;1.10;99.90;;;;;;5089611;28;20028;-71
2021/11/25 02:27:21;;;;;;;35.45;18.77;;;1.10;99.90;;;;;;5091002;28;20052;-71
2021/11/25 02:29:48;;;;;;;32.33;17.38;;;1.10;99.90;;;;;;5086808;28;20377;-71
2021/11/25 02:32:31;;;;;;;34.63;18.55;;;1.10;99.90;;;;;;5089806;28;20377;-71
2021/11/25 02:34:58;;;;;;;33.83;18.10;;;1.10;99.90;;;;;;5091030;28;20111;-71
2021/11/25 02:37:24;;;;;;;33.65;18.45;;;1.10;99.90;;;;;;5090882;28;20569;-71
2021/11/25 02:39:50;;;;;;;34.30;17.85;;;1.10;99.90;;;;;;5091690;28;20032;-71
2021/11/25 02:42:17;;;;;;;37.03;19.15;;;1.10;99.90;;;;;;5091593;28;20082;-71
2021/11/25 02:44:42;;;;;;;36.42;18.90;;;1.10;99.90;;;;;;5090899;28;20032;-71
2021/11/25 02:47:08;;;;;;;34.95;18.73;;;1.10;99.90;;;;;;5091822;28;20035;-71
2021/11/25 02:49:34;;;;;;;34.40;17.52;;;1.10;99.90;;;;;;5089773;28;20059;-71
2021/11/25 02:52:00;;;;;;;34.03;18.42;;;1.10;99.90;;;;;;5091456;28;20031;-71
2021/11/25 02:54:26;;;;;;;36.30;19.35;;;1.10;99.90;;;;;;5089134;28;20043;-71
2021/11/25 02:56:54;;;;;;;34.92;19.52;;;1.10;99.90;;;;;;5091348;28;20036;-71
2021/11/25 02:59:22;;;;;;;34.53;18.77;;;1.00;99.90;;;;;;5090878;28;20326;-71
2021/11/25 03:01:47;;;;;;;33.63;18.85;;;1.00;99.90;;;;;;5091418;28;20028;-71
2021/11/25 03:04:13;;;;;;;36.33;19.10;;;1.10;99.90;;;;;;5091155;28;20465;-72
2021/11/25 03:06:39;;;;;;;34.95;17.90;;;1.00;99.90;;;;;;5090226;28;20020;-71
2021/11/25 03:09:06;;;;;;;33.13;18.13;;;1.00;99.90;;;;;;5091550;28;20038;-71
2021/11/25 03:11:32;;;;;;;35.53;18.00;;;1.00;99.90;;;;;;5090778;28;20020;-71
2021/11/25 03:14:04;;;;;;;35.15;18.73;;;1.00;99.90;;;;;;5091229;28;20089;-71
2021/11/25 03:16:31;;;;;;;37.72;19.52;;;1.00;99.90;;;;;;5090169;28;20036;-71
2021/11/25 03:18:57;;;;;;;34.58;18.85;;;1.00;99.90;;;;;;5091178;28;20032;-71
2021/11/25 03:21:25;;;;;;;33.30;18.23;;;1.00;99.90;;;;;;5090633;28;20020;-71
2021/11/25 03:23:52;;;;;;;37.67;19.30;;;1.00;99.90;;;;;;5089703;28;20381;-71
2021/11/25 03:26:20;;;;;;;33.70;18.40;;;1.00;99.90;;;;;;5090111;28;20054;-71
2021/11/25 03:28:47;;;;;;;35.60;19.08;;;1.00;99.90;;;;;;5090875;28;20027;-71
2021/11/25 03:31:18;;;;;;;36.50;18.88;;;1.00;99.90;;;;;;5090959;28;20020;-71
2021/11/25 03:33:45;;;;;;;36.13;18.55;;;1.00;99.90;;;;;;5090409;28;20043;-71
2021/11/25 03:36:11;;;;;;;35.92;19.30;;;1.00;99.90;;;;;;5089436;28;20085;-71
2021/11/25 03:38:38;;;;;;;37.30;19.83;;;1.10;99.90;;;;;;5090094;28;20032;-70
2021/11/25 03:41:06;;;;;;;30.88;16.98;;;1.10;99.90;;;;;;5091145;28;20059;-71
2021/11/25 03:43:32;;;;;;;32.80;18.38;;;1.10;99.90;;;;;;5092513;28;20401;-71
2021/11/25 03:45:58;;;;;;;36.60;18.77;;;1.10;99.90;;;;;;5094675;28;20032;-71
2021/11/25 03:48:28;;;;;;;36.05;18.15;;;1.00;99.90;;;;;;5094099;28;20495;-71
2021/11/25 03:50:55;;;;;;;34.55;18.95;;;1.00;99.90;;;;;;5093293;28;20047;-71
2021/11/25 03:53:23;;;;;;;37.28;19.60;;;1.00;99.90;;;;;;5094430;28;20556;-71
2021/11/25 03:55:49;;;;;;;37.10;18.73;;;1.00;99.90;;;;;;5094006;28;20111;-71
2021/11/25 03:58:15;;;;;;;34.70;18.00;;;1.00;99.90;;;;;;5094979;28;20035;-71
2021/11/25 04:00:41;;;;;;;34.40;18.63;;;1.00;99.90;;;;;;5093377;28;20028;-71
2021/11/25 04:03:06;;;;;;;35.33;19.48;;;1.10;99.90;;;;;;5094578;28;20035;-71
2021/11/25 04:05:33;;;;;;;37.53;18.95;;;1.10;99.90;;;;;;5093057;28;20401;-71
2021/11/25 04:07:59;;;;;;;35.40;19.55;;;1.10;99.90;;;;;;5092855;28;20035;-71
2021/11/25 04:10:25;;;;;;;36.88;18.58;;;1.00;99.90;;;;;;5093515;28;20032;-71
2021/11/25 04:12:51;;;;;;;34.10;18.95;;;1.00;99.90;;;;;;5094318;28;20039;-71
2021/11/25 04:15:17;;;;;;;34.00;18.27;;;1.00;99.90;;;;;;5094154;28;20028;-71
2021/11/25 04:17:43;;;;;;;34.97;18.95;;;1.00;99.90;;;;;;5092963;28;20074;-71
2021/11/25 04:20:10;;;;;;;37.40;19.80;;;1.00;99.90;;;;;;5093839;28;20047;-71
2021/11/25 04:22:37;;;;;;;35.90;19.63;;;1.00;99.90;;;;;;5092772;28;20107;-71
2021/11/25 04:25:04;;;;;;;35.25;19.58;;;1.00;99.90;;;;;;5093513;28;20389;-71
2021/11/25 04:27:29;;;;;;;40.10;19.48;;;1.00;99.90;;;;;;5093088;28;20024;-71
2021/11/25 04:30:11;;;;;;;37.10;18.75;;;1.00;99.90;;;;;;5093713;28;20028;-71
2021/11/25 04:35:30;;;;;;;38.38;19.52;;;1.10;99.90;;;;;;5072655;28;20167;-71
2021/11/25 04:38:08;;;;;;;33.97;18.27;;;1.10;99.90;;;;;;5073359;28;20043;-71
2021/11/25 04:40:43;;;;;;;37.40;19.45;;;1.10;99.90;;;;;;5072811;28;20381;-72
2021/11/25 04:43:09;;;;;;;32.47;17.63;;;1.10;99.90;;;;;;5072404;28;20029;-71
2021/11/25 04:45:36;;;;;;;31.25;16.50;;;1.10;99.90;;;;;;5087323;28;20470;-71
2021/11/25 04:48:03;;;;;;;38.00;18.88;;;1.10;99.90;;;;;;5093417;28;20044;-71
2021/11/25 04:50:29;;;;;;;38.30;20.40;;;1.10;99.90;;;;;;5092568;28;20405;-71
2021/11/25 04:52:54;;;;;;;38.50;20.27;;;1.10;99.90;;;;;;5092981;28;20024;-71
2021/11/25 04:55:20;;;;;;;37.75;19.60;;;1.10;99.90;;;;;;5091042;28;20028;-71
2021/11/25 04:57:46;;;;;;;33.58;17.63;;;1.10;99.90;;;;;;5091192;28;20040;-71
2021/11/25 05:00:14;;;;;;;38.03;18.90;;;1.10;99.90;;;;;;5092939;28;20024;-71
2021/11/25 05:02:40;;;;;;;35.83;18.15;;;1.10;99.90;;;;;;5071034;28;20064;-71
2021/11/25 05:05:07;;;;;;;32.78;17.55;;;1.10;99.90;;;;;;5071779;28;20067;-71
2021/11/25 05:07:33;;;;;;;36.05;19.60;;;1.10;99.90;;;;;;5088307;28;20028;-71
2021/11/25 05:09:58;;;;;;;35.90;18.00;;;1.10;99.90;;;;;;5092456;28;20028;-71
2021/11/25 05:12:26;;;;;;;40.00;20.63;;;1.10;99.90;;;;;;5092725;28;20024;-71
2021/11/25 05:14:52;;;;;;;43.15;19.75;;;1.10;99.90;;;;;;5091425;28;20512;-71
2021/11/25 05:17:18;;;;;;;39.60;20.85;;;1.10;99.90;;;;;;5092857;28;20116;-71
2021/11/25 05:19:43;;;;;;;38.25;19.52;;;1.10;99.90;;;;;;5091943;28;20022;-71
2021/11/25 05:22:09;;;;;;;42.72;21.48;;;1.10;99.90;;;;;;5092901;28;20052;-71
2021/11/25 05:24:35;;;;;;;43.03;20.25;;;1.10;99.90;;;;;;5090833;28;20028;-71
2021/11/25 05:27:01;;;;;;;41.50;21.02;;;1.10;99.90;;;;;;5092620;28;20032;-71
2021/11/25 05:29:27;;;;;;;38.47;19.73;;;1.10;99.90;;;;;;5091827;28;20020;-71
2021/11/25 05:31:52;;;;;;;39.55;20.70;;;1.00;99.90;;;;;;5092388;28;20060;-71
2021/11/25 05:34:18;;;;;;;37.20;19.17;;;1.00;99.90;;;;;;5092804;28;20064;-71
2021/11/25 05:36:45;;;;;;;39.17;21.20;;;1.00;99.90;;;;;;5091585;28;20024;-71
2021/11/25 05:39:11;;;;;;;34.50;18.90;;;1.00;99.90;;;;;;5092382;28;20112;-71
2021/11/25 05:41:38;;;;;;;36.33;18.60;;;1.10;99.90;;;;;;5091903;28;20055;-71
2021/11/25 05:44:05;;;;;;;36.88;18.77;;;1.10;99.90;;;;;;5092576;28;20020;-71
2021/11/25 05:46:31;;;;;;;35.10;18.52;;;1.10;99.90;;;;;;5090251;28;20028;-71
2021/11/25 05:48:56;;;;;;;38.42;20.35;;;1.10;99.90;;;;;;5090699;28;20434;-70
2021/11/25 05:51:22;;;;;;;39.95;19.52;;;1.00;99.90;;;;;;5090982;28;20036;-70
2021/11/25 05:53:48;;;;;;;38.00;19.30;;;1.00;99.90;;;;;;5090431;28;20280;-71
2021/11/25 05:56:14;;;;;;;37.28;19.13;;;1.00;99.90;;;;;;5090954;28;20377;-71
2021/11/25 05:58:41;;;;;;;38.63;19.75;;;1.00;99.90;;;;;;5090966;28;20024;-70
2021/11/25 06:01:06;;;;;;;36.35;18.55;;;1.00;99.90;;;;;;5090002;28;21496;-70
2021/11/25 06:03:33;;;;;;;40.10;20.17;;;1.00;99.90;;;;;;5086462;28;20098;-71
2021/11/25 06:05:59;;;;;;;38.45;19.55;;;1.00;99.90;;;;;;5090348;28;20028;-70
2021/11/25 06:08:29;;;;;;;39.28;19.55;;;1.00;99.90;;;;;;5090470;28;20040;-71
2021/11/25 06:10:56;;;;;;;37.28;19.13;;;1.10;99.90;;;;;;5090529;28;20027;-71
2021/11/25 06:13:21;;;;;;;36.13;19.48;;;1.00;99.90;;;;;;5090860;28;20081;-71
2021/11/25 06:15:47;;;;;;;37.03;18.90;;;1.00;99.90;;;;;;5089301;28;20035;-71
2021/11/25 06:18:14;;;;;;;38.85;20.25;;;1.00;99.90;;;;;;5090113;28;20032;-71
2021/11/25 06:20:40;;;;;;;40.33;19.88;;;1.00;99.90;;;;;;5089970;28;20020;-71
2021/11/25 06:23:06;;;;;;;34.47;17.90;;;1.00;99.90;;;;;;5090543;28;20042;-72
2021/11/25 06:25:33;;;;;;;34.25;18.45;;;1.00;99.90;;;;;;5084116;28;20023;-72
2021/11/25 06:27:58;;;;;;;38.67;20.02;;;1.00;99.90;;;;;;5090420;28;20469;-72
2021/11/25 06:30:30;;;;;;;41.33;20.13;;;1.00;99.90;;;;;;5090657;28;20032;-71
2021/11/25 06:32:56;;;;;;;37.00;19.42;;;1.00;99.90;;;;;;5088404;28;20069;-71
2021/11/25 06:35:21;;;;;;;39.55;21.15;;;1.00;99.90;;;;;;5090364;28;20473;-72
2021/11/25 06:37:51;;;;;;;40.38;21.02;;;1.00;99.90;;;;;;5089604;28;20351;-72
2021/11/25 06:40:21;;;;;;;42.60;20.77;;;1.00;99.90;;;;;;5091202;28;20485;-72
2021/11/25 06:42:47;;;;;;;41.15;21.45;;;1.00;99.90;;;;;;5090653;28;20327;-71
2021/11/25 06:45:14;;;;;;;38.28;19.73;;;1.00;99.90;;;;;;5092028;28;20028;-71
2021/11/25 06:47:40;;;;;;;38.45;19.65;;;1.00;99.90;;;;;;5089031;28;20028;-71
2021/11/25 06:50:09;;;;;;;37.10;18.95;;;1.00;99.90;;;;;;5091256;28;20020;-72
2021/11/25 06:52:36;;;;;;;39.63;19.80;;;1.10;99.90;;;;;;5090515;28;20031;-72
2021/11/25 06:55:01;;;;;;;38.38;20.45;;;1.10;99.90;;;;;;5090727;28;20120;-71
2021/11/25 06:57:28;;;;;;;39.70;19.83;;;1.10;99.90;;;;;;5090549;28;20111;-72
2021/11/25 06:59:54;;;;;;;41.45;20.42;;;1.10;99.90;;;;;;5091064;28;20039;-72
2021/11/25 07:02:20;;;;;;;40.67;21.73;;;1.10;99.90;;;;;;5091575;28;20024;-71
2021/11/25 07:04:45;;;;;;;39.28;20.90;;;1.10;99.90;;;;;;5086877;28;20042;-71
2021/11/25 07:07:11;;;;;;;34.78;19.60;;;1.10;99.90;;;;;;5092333;28;20032;-71
2021/11/25 07:09:37;;;;;;;40.65;20.15;;;1.10;99.90;;;;;;5091320;28;20075;-71
2021/11/25 07:12:03;;;;;;;36.13;19.80;;;1.10;99.90;;;;;;5091158;28;20028;-71
2021/11/25 07:14:29;;;;;;;35.88;18.67;;;1.20;99.90;;;;;;5090221;28;20028;-72
2021/11/25 07:16:56;;;;;;;37.47;19.75;;;1.10;99.90;;;;;;5091052;28;20036;-72
2021/11/25 07:19:22;;;;;;;41.63;20.73;;;1.10;99.90;;;;;;5095702;28;20016;-72
2021/11/25 07:21:48;;;;;;;37.80;19.90;;;1.10;99.90;;;;;;5093254;28;20609;-72
2021/11/25 07:24:14;;;;;;;36.22;19.85;;;1.20;99.90;;;;;;5095392;28;20039;-72
2021/11/25 07:26:39;;;;;;;41.75;20.67;;;1.30;99.90;;;;;;5094319;28;20495;-71
2021/11/25 07:29:05;;;;;;;36.95;19.60;;;1.20;99.90;;;;;;5094572;28;20032;-71
2021/11/25 07:31:33;;;;;;;40.75;20.90;;;1.20;99.90;;;;;;5093783;28;20035;-72
2021/11/25 07:33:59;;;;;;;40.13;21.20;;;1.20;99.90;;;;;;5094762;28;20077;-71
2021/11/25 07:36:32;;;;;;;39.67;19.85;;;1.20;99.90;;;;;;5093325;28;20042;-72
2021/11/25 07:38:58;;;;;;;36.90;19.77;;;1.20;99.90;;;;;;5093052;28;20046;-72
2021/11/25 07:41:23;;;;;;;39.08;19.67;;;1.20;99.90;;;;;;5094591;28;20024;-70
2021/11/25 07:43:49;;;;;;;42.50;21.23;;;1.20;99.90;;;;;;5093737;28;20525;-72
2021/11/25 07:46:15;;;;;;;41.20;20.40;;;1.20;99.90;;;;;;5093804;28;20075;-73
2021/11/25 07:48:41;;;;;;;46.00;21.20;;;1.30;99.90;;;;;;5093369;28;20470;-73
2021/11/25 07:51:06;;;;;;;44.10;21.98;;;1.30;99.90;;;;;;5093754;28;20024;-72
2021/11/25 07:53:32;;;;;;;38.65;20.55;;;1.30;99.90;;;;;;5093580;28;20027;-71
2021/11/25 07:55:58;;;;;;;36.78;20.05;;;1.30;99.90;;;;;;5093264;28;20123;-71
2021/11/25 07:58:24;;;;;;;42.00;22.05;;;1.30;99.90;;;;;;5093252;28;20073;-71
2021/11/25 08:00:50;;;;;;;35.20;18.10;;;1.30;99.90;;;;;;5093282;28;20092;-72
2021/11/25 08:03:16;;;;;;;40.92;20.88;;;1.40;99.90;;;;;;5093198;28;20495;-71
2021/11/25 08:05:42;;;;;;;38.63;19.90;;;1.40;99.90;;;;;;5093846;28;20063;-72
2021/11/25 08:08:10;;;;;;;38.42;19.75;;;1.40;99.90;;;;;;5094222;28;20034;-72
2021/11/25 08:10:36;;;;;;;41.42;22.00;;;1.40;99.90;;;;;;5093006;28;20032;-69
2021/11/25 08:13:04;;;;;;;39.05;20.95;;;1.40;99.90;;;;;;5094417;28;20027;-68
2021/11/25 08:15:32;;;;;;;37.47;19.67;;;1.50;99.90;;;;;;5093634;28;20024;-70
2021/11/25 08:17:58;;;;;;;37.20;20.38;;;1.50;99.90;;;;;;5093038;28;20385;-71
2021/11/25 08:20:24;;;;;;;39.17;20.35;;;1.60;99.90;;;;;;5094161;28;20024;-72
2021/11/25 08:22:50;;;;;;;40.53;20.85;;;1.60;99.90;;;;;;5093184;28;20040;-73
2021/11/25 08:25:17;;;;;;;40.60;20.60;;;1.60;99.90;;;;;;5094185;28;20047;-72
2021/11/25 08:27:43;;;;;;;38.70;20.92;;;1.70;99.90;;;;;;5095144;28;20489;-72
2021/11/25 08:30:12;;;;;;;40.83;21.13;;;1.70;99.90;;;;;;5093879;28;20069;-71
2021/11/25 08:32:39;;;;;;;38.92;21.05;;;1.70;99.90;;;;;;5091804;28;20028;-72
2021/11/25 08:35:06;;;;;;;39.40;20.85;;;1.70;99.90;;;;;;5093679;28;20461;-70
2021/11/25 08:37:32;;;;;;;35.97;19.77;;;1.70;99.90;;;;;;5093775;28;20036;-73
2021/11/25 08:39:59;;;;;;;40.25;20.77;;;1.80;99.90;;;;;;5093713;28;20384;-72
2021/11/25 08:42:24;;;;;;;44.17;22.38;;;1.80;99.90;;;;;;5093383;28;20028;-70
2021/11/25 08:44:50;;;;;;;38.80;19.27;;;1.80;99.90;;;;;;5092789;28;20507;-70
2021/11/25 08:47:16;;;;;;;41.92;20.23;;;1.90;99.90;;;;;;5094099;28;20032;-71
2021/11/25 08:49:42;;;;;;;36.65;21.00;;;2.00;99.90;;;;;;5092748;28;20051;-71
2021/11/25 08:52:08;;;;;;;41.92;20.98;;;2.00;99.90;;;;;;5097540;28;20023;-70
2021/11/25 08:54:34;;;;;;;38.22;20.52;;;2.00;99.90;;;;;;5112526;28;20118;-71
2021/11/25 08:56:59;;;;;;;35.67;19.55;;;1.90;99.90;;;;;;5093035;28;20495;-70
2021/11/25 08:59:25;;;;;;;39.70;19.13;;;1.90;99.90;;;;;;5093150;28;20065;-71
2021/11/25 09:01:51;;;;;;;39.70;19.65;;;1.90;99.90;;;;;;5092272;28;20055;-72
2021/11/25 09:04:17;;;;;;;37.25;20.10;;;1.90;99.90;;;;;;5092769;28;20048;-73
2021/11/25 09:06:43;;;;;;;39.28;21.05;;;2.00;99.90;;;;;;5091647;28;20032;-73
2021/11/25 09:09:09;;;;;;;41.03;20.88;;;2.00;99.90;;;;;;5101864;28;20034;-72
2021/11/25 09:11:35;;;;;;;37.42;20.80;;;2.00;99.90;;;;;;5112412;28;20107;-72
2021/11/25 09:14:02;;;;;;;40.55;22.98;;;2.00;99.90;;;;;;5098879;28;20059;-72
2021/11/25 09:16:27;;;;;;;44.35;23.52;;;2.00;99.90;;;;;;5091230;28;20087;-71
2021/11/25 09:18:53;;;;;;;44.13;21.58;;;2.10;99.90;;;;;;5092023;28;20052;-72
2021/11/25 09:21:21;;;;;;;45.38;23.08;;;2.00;99.90;;;;;;5092515;28;20095;-69
2021/11/25 09:23:48;;;;;;;40.85;21.27;;;2.10;99.90;;;;;;5091879;28;20020;-72
2021/11/25 09:26:14;;;;;;;39.58;21.63;;;2.10;99.90;;;;;;5090694;28;20035;-71
2021/11/25 09:28:40;;;;;;;42.05;21.85;;;2.10;99.90;;;;;;5092200;28;20468;-72
2021/11/25 09:31:07;;;;;;;40.25;21.48;;;2.10;99.90;;;;;;5091921;28;20024;-71
2021/11/25 09:33:34;;;;;;;42.70;23.20;;;2.10;99.90;;;;;;5089222;28;20543;-70
2021/11/25 09:36:00;;;;;;;44.88;22.38;;;2.10;99.90;;;;;;5090752;28;20036;-69
2021/11/25 09:38:25;;;;;;;37.78;20.55;;;2.10;99.90;;;;;;5091412;28;20520;-68
2021/11/25 09:40:51;;;;;;;38.28;20.48;;;2.10;99.90;;;;;;5091074;28;20020;-69
2021/11/25 09:43:24;;;;;;;40.60;20.80;;;2.10;99.90;;;;;;5092117;28;20024;-69
2021/11/25 09:45:51;;;;;;;40.38;21.90;;;2.20;99.90;;;;;;5090814;28;20111;-68
2021/11/25 09:48:18;;;;;;;42.28;22.45;;;2.20;99.90;;;;;;5086965;28;20040;-68
2021/11/25 09:50:49;;;;;;;46.70;21.88;;;2.20;99.90;;;;;;5090068;28;20457;-69
2021/11/25 09:53:18;;;;;;;38.58;20.90;;;2.20;99.90;;;;;;5091992;28;20419;-67
2021/11/25 09:55:48;;;;;;;48.67;22.10;;;2.20;99.90;;;;;;5090081;28;20036;-69
2021/11/25 09:58:16;;;;;;;38.13;21.13;;;2.20;99.90;;;;;;5089943;28;20050;-70
2021/11/25 10:00:48;;;;;;;39.03;19.75;;;2.30;99.90;;;;;;5073764;28;20032;-69
2021/11/25 10:03:18;;;;;;;36.83;20.27;;;2.30;99.90;;;;;;5081297;28;20024;-68
2021/11/25 10:05:52;;;;;;;41.57;20.60;;;2.30;99.90;;;;;;5091663;28;20059;-70
2021/11/25 10:08:25;;;;;;;36.88;21.10;;;2.30;99.90;;;;;;5091857;28;20024;-68
2021/11/25 10:11:13;;;;;;;41.33;21.77;;;2.30;99.90;;;;;;5091062;28;20105;-69
2021/11/25 10:13:45;;;;;;;47.95;21.88;;;2.30;99.90;;;;;;5090825;28;20031;-68
2021/11/25 10:16:16;;;;;;;41.85;21.63;;;2.30;99.90;;;;;;5076032;28;20072;-66
2021/11/25 10:18:44;;;;;;;43.33;22.40;;;2.40;99.90;;;;;;5072157;28;20039;-70
2021/11/25 10:21:19;;;;;;;49.95;22.35;;;2.40;99.90;;;;;;5085785;28;20027;-68
2021/11/25 10:23:48;;;;;;;40.22;20.92;;;2.40;99.90;;;;;;5089335;28;20021;-68
2021/11/25 10:26:33;;;;;;;38.78;21.15;;;2.40;99.90;;;;;;5091489;28;20028;-68
2021/11/25 10:29:02;;;;;;;35.72;20.48;;;2.40;99.90;;;;;;5105875;28;20102;-69
2021/11/25 10:31:30;;;;;;;42.15;22.85;;;2.50;99.90;;;;;;5111457;28;20085;-69
2021/11/25 10:34:06;;;;;;;50.40;23.48;;;2.50;99.90;;;;;;5104838;28;20098;-69
2021/11/25 10:42:03;;;;;;;45.88;22.67;;;2.50;99.90;;;;;;5070581;28;20024;-68
2021/11/25 10:44:32;;;;;;;43.30;21.55;;;2.50;99.90;;;;;;5071075;28;20028;-68
2021/11/25 10:47:08;;;;;;;38.07;20.53;;;2.60;99.90;;;;;;5076344;28;20028;-69
2021/11/25 10:49:48;;;;;;;47.47;22.00;;;2.70;99.90;;;;;;5091350;28;20082;-69
2021/11/25 10:52:28;;;;;;;40.10;21.15;;;2.80;99.90;;;;;;5090098;28;20028;-69
2021/11/25 10:55:00;;;;;;;35.80;20.95;;;2.90;99.90;;;;;;5075492;28;20113;-69
2021/11/25 10:58:01;;;;;;;39.38;20.55;;;3.00;99.90;;;;;;5074880;28;20409;-68
2021/11/25 11:00:33;;;;;;;38.58;19.25;;;2.90;99.90;;;;;;5070568;28;20042;-68
2021/11/25 11:03:11;;;;;;;37.97;20.00;;;2.90;99.90;;;;;;5092929;28;20050;-67
2021/11/25 11:06:01;;;;;;;36.95;20.98;;;2.90;99.90;;;;;;5095874;28;20036;-72
2021/11/25 11:08:29;;;;;;;38.50;21.02;;;2.90;99.90;;;;;;5084170;28;20040;-72
2021/11/25 11:11:01;;;;;;;43.35;21.00;;;2.90;99.90;;;;;;5078571;28;20016;-74
2021/11/25 11:21:09;;;;;;;47.70;22.30;;;2.90;99.90;;;;;;5094668;28;20035;-70
2021/11/25 11:23:42;;;;;;;42.03;21.40;;;3.00;99.90;;;;;;5093814;28;20386;-72
2021/11/25 11:26:08;;;;;;;41.95;21.50;;;2.90;99.90;;;;;;5094637;28;20491;-70
2021/11/25 11:28:35;;;;;;;37.58;21.27;;;2.90;99.90;;;;;;5094517;28;20020;-70
2021/11/25 11:31:01;;;;;;;39.60;22.25;;;3.00;99.90;;;;;;5093751;28;20051;-69
2021/11/25 11:33:28;;;;;;;41.65;22.90;;;3.10;99.90;;;;;;5094112;28;20063;-69
2021/11/25 11:35:54;;;;;;;37.42;20.75;;;3.10;99.90;;;;;;5093892;28;20552;-69
2021/11/25 11:38:20;;;;;;;41.33;20.90;;;3.10;99.90;;;;;;5094911;28;20181;-70
2021/11/25 11:40:46;;;;;;;37.10;20.25;;;3.10;99.90;;;;;;5093960;28;20036;-70
2021/11/25 11:43:12;;;;;;;38.08;20.90;;;3.10;99.90;;;;;;5094171;28;20035;-70
2021/11/25 11:45:40;;;;;;;40.70;22.95;;;3.10;99.90;;;;;;5093819;28;20053;-73
2021/11/25 11:48:13;;;;;;;38.70;21.30;;;3.20;99.90;;;;;;5093884;28;20048;-69
2021/11/25 11:50:53;;;;;;;39.90;20.95;;;3.30;99.90;;;;;;5092458;28;20111;-72
2021/11/25 11:53:21;;;;;;;37.75;20.77;;;3.40;99.90;;;;;;5092917;28;20047;-69
2021/11/25 11:55:57;;;;;;;43.13;22.65;;;3.50;99.90;;;;;;5089168;28;20043;-69
2021/11/25 11:58:31;;;;;;;39.92;21.70;;;3.50;99.90;;;;;;5092707;28;20028;-70
2021/11/25 12:01:16;;;;;;;42.33;21.40;;;3.50;99.90;;;;;;5092481;28;20031;-69
2021/11/25 12:03:52;;;;;;;37.95;22.17;;;3.50;99.90;;;;;;5091511;28;20032;-72
2021/11/25 12:06:31;;;;;;;47.88;23.75;;;3.60;99.90;;;;;;5092975;28;20082;-73
2021/11/25 12:08:57;;;;;;;37.22;20.92;;;3.70;99.90;;;;;;5091276;28;20020;-78
2021/11/25 12:11:34;;;;;;;41.72;22.23;;;3.70;99.90;;;;;;5091664;28;20055;-73
2021/11/25 12:14:16;;;;;;;38.58;21.25;;;3.70;99.90;;;;;;5071850;28;20795;-80
2021/11/25 12:16:48;;;;;;;38.63;21.40;;;3.70;99.90;;;;;;5072047;28;20078;-85
2021/11/25 12:19:33;;;;;;;39.05;20.42;;;3.60;99.90;;;;;;5072837;28;20033;-80
2021/11/25 12:22:09;;;;;;;40.10;20.50;;;3.60;99.90;;;;;;5089485;28;20024;-80
2021/11/25 12:24:49;;;;;;;36.13;19.98;;;3.60;99.90;;;;;;5092135;28;20054;-74
2021/11/25 12:27:34;;;;;;;35.00;20.63;;;3.60;99.90;;;;;;5092920;28;20024;-76
2021/11/25 12:30:03;;;;;;;39.28;20.02;;;3.50;99.90;;;;;;5091985;28;20019;-70
2021/11/25 12:35:15;;;;;;;39.63;21.23;;;3.50;99.90;;;;;;5091899;28;20107;-71
2021/11/25 12:37:53;;;;;;;40.60;21.40;;;3.50;99.90;;;;;;5091703;28;20036;-73
2021/11/25 12:40:21;;;;;;;39.92;20.75;;;3.40;99.90;;;;;;5092621;28;20074;-73
2021/11/25 12:42:51;;;;;;;37.65;21.95;;;3.30;99.90;;;;;;5090188;28;20578;-72
2021/11/25 12:45:30;;;;;;;38.47;21.58;;;3.30;99.90;;;;;;5092391;28;20066;-74
2021/11/25 12:48:05;;;;;;;39.60;21.35;;;3.30;99.90;;;;;;5041509;28;1121863;-73
2021/11/25 12:50:54;;;;;;;37.20;20.55;;;3.20;99.90;;;;;;5091891;28;20107;-73
2021/11/25 12:53:24;;;;;;;38.50;21.35;;;3.20;99.90;;;;;;5092976;28;20024;-73
2021/11/25 12:56:10;;;;;;;35.88;19.05;;;3.30;99.90;;;;;;5091770;28;20385;-73
2021/11/25 12:58:58;;;;;;;40.30;21.70;;;3.20;99.90;;;;;;5092115;28;20032;-73